Time;durP1;ratioP1;P1;durP2;ratioP2;P2;SDS_P1;SDS_P2;PMS_P1;PMS_P2;Temp;Humidity;BMP_temperature;BMP_pressure;BME280_temperature;BME280_humidity;BME280_pressure;Samples;Min_cycle;Max_cycle;Signal;HPM_P1;HPM_P2
2021/04/04 00:02:24;;;;;;;539.83;155.82;;;5.80;99.90;;;;;;5068135;28;20197;-77
2021/04/04 00:04:51;;;;;;;509.92;130.32;;;5.70;99.90;;;;;;5072553;28;20228;-78
2021/04/04 00:07:18;;;;;;;563.33;145.70;;;5.60;99.90;;;;;;5069062;28;20246;-77
2021/04/04 00:09:44;;;;;;;561.60;148.07;;;5.60;99.90;;;;;;5073705;28;20208;-77
2021/04/04 00:12:11;;;;;;;557.90;132.80;;;5.60;99.90;;;;;;5071072;28;20209;-77
2021/04/04 00:14:38;;;;;;;523.70;131.23;;;5.60;99.90;;;;;;5076015;28;20208;-77
2021/04/04 00:17:05;;;;;;;537.13;148.88;;;5.60;99.90;;;;;;5079993;28;20282;-78
2021/04/04 00:19:32;;;;;;;540.80;141.88;;;5.50;99.90;;;;;;5076550;28;20213;-78
2021/04/04 00:21:59;;;;;;;532.33;144.88;;;5.50;99.90;;;;;;5067731;28;20193;-78
2021/04/04 00:24:25;;;;;;;532.47;138.60;;;5.40;99.90;;;;;;5068920;28;20218;-78
2021/04/04 00:26:52;;;;;;;544.33;136.27;;;5.40;99.90;;;;;;5069807;28;20197;-77
2021/04/04 00:29:18;;;;;;;544.75;119.15;;;5.40;99.90;;;;;;5070016;28;20197;-78
2021/04/04 00:31:45;;;;;;;567.60;133.52;;;5.40;99.90;;;;;;5069894;28;20204;-77
2021/04/04 00:34:11;;;;;;;544.53;121.05;;;5.30;99.90;;;;;;5069337;28;20215;-78
2021/04/04 00:36:38;;;;;;;554.45;132.52;;;5.30;99.90;;;;;;5073624;28;20661;-77
2021/04/04 00:39:08;;;;;;;550.30;129.02;;;5.30;99.90;;;;;;5072308;28;20209;-78
2021/04/04 00:41:36;;;;;;;554.25;133.63;;;5.20;99.90;;;;;;5078067;28;20197;-78
2021/04/04 00:44:04;;;;;;;558.33;125.80;;;5.20;99.90;;;;;;5072771;28;20259;-78
2021/04/04 00:46:30;;;;;;;518.85;110.40;;;5.20;99.90;;;;;;5069794;28;20201;-78
2021/04/04 00:48:57;;;;;;;508.10;119.18;;;5.20;99.90;;;;;;5068743;28;20243;-78
2021/04/04 00:51:23;;;;;;;516.83;125.45;;;5.20;99.90;;;;;;5070219;28;20213;-78
2021/04/04 00:53:50;;;;;;;518.90;135.15;;;5.20;99.90;;;;;;5075236;28;20209;-78
2021/04/04 00:56:18;;;;;;;514.45;136.75;;;5.30;99.90;;;;;;5070716;28;20271;-77
2021/04/04 00:58:45;;;;;;;517.92;138.48;;;5.30;99.90;;;;;;5074335;28;20207;-78
2021/04/04 01:01:12;;;;;;;520.72;135.38;;;5.30;99.90;;;;;;5069759;28;20209;-78
2021/04/04 01:03:39;;;;;;;525.67;139.48;;;5.20;99.90;;;;;;5073533;28;20225;-77
2021/04/04 01:06:07;;;;;;;514.67;138.80;;;5.20;99.90;;;;;;5072084;28;20320;-78
2021/04/04 01:08:34;;;;;;;499.88;113.50;;;5.20;99.90;;;;;;5069493;28;20227;-77
2021/04/04 01:11:01;;;;;;;498.52;118.22;;;5.20;99.90;;;;;;5073402;28;20224;-78
2021/04/04 01:13:39;;;;;;;504.20;119.28;;;5.20;99.90;;;;;;5072874;28;20196;-79
2021/04/04 01:16:10;;;;;;;544.95;128.50;;;5.20;99.90;;;;;;5069248;28;20205;-77
2021/04/04 01:18:40;;;;;;;554.60;129.90;;;5.20;99.90;;;;;;5075810;28;20753;-78
2021/04/04 01:21:13;;;;;;;556.78;128.07;;;5.10;99.90;;;;;;5069707;28;20224;-78
2021/04/04 01:23:57;;;;;;;544.17;114.05;;;5.10;99.90;;;;;;5073273;28;20231;-79
2021/04/04 01:26:39;;;;;;;519.78;133.45;;;5.10;99.90;;;;;;5069851;28;20204;-78
2021/04/04 01:29:09;;;;;;;494.70;116.07;;;5.10;99.90;;;;;;5069650;28;20205;-78
2021/04/04 01:31:36;;;;;;;491.77;127.93;;;5.10;99.90;;;;;;5069947;28;20202;-78
2021/04/04 01:34:05;;;;;;;516.67;133.00;;;5.10;99.90;;;;;;5069159;28;20201;-78
2021/04/04 01:36:35;;;;;;;496.58;110.25;;;5.20;99.90;;;;;;5068836;28;20256;-77
2021/04/04 01:39:06;;;;;;;525.53;134.02;;;5.30;99.90;;;;;;5068164;28;20202;-77
2021/04/04 01:41:36;;;;;;;553.55;135.40;;;5.40;99.90;;;;;;5067425;28;20201;-77
2021/04/04 01:44:08;;;;;;;520.28;128.32;;;5.40;99.90;;;;;;5073827;28;20583;-77
2021/04/04 01:46:35;;;;;;;485.23;140.23;;;5.50;99.90;;;;;;5068878;28;20730;-78
2021/04/04 01:49:02;;;;;;;516.65;143.00;;;5.60;99.90;;;;;;5067877;28;20251;-78
2021/04/04 01:51:30;;;;;;;566.25;155.88;;;5.80;99.90;;;;;;5067666;28;20212;-78
2021/04/04 01:54:00;;;;;;;554.08;133.65;;;5.90;99.90;;;;;;5067612;28;20208;-77
2021/04/04 01:56:27;;;;;;;564.22;147.27;;;5.90;99.90;;;;;;5067230;28;20218;-77
2021/04/04 01:58:55;;;;;;;550.33;134.95;;;6.00;99.90;;;;;;5067269;28;20200;-76
2021/04/04 02:01:23;;;;;;;557.33;136.38;;;6.10;99.90;;;;;;5066841;28;20216;-77
2021/04/04 02:03:50;;;;;;;568.03;152.30;;;6.20;99.90;;;;;;5065586;28;20237;-78
2021/04/04 02:06:18;;;;;;;548.92;151.63;;;6.30;99.90;;;;;;5070359;28;20205;-78
2021/04/04 02:08:46;;;;;;;563.47;157.63;;;6.40;99.90;;;;;;5078213;28;20204;-77
2021/04/04 02:11:17;;;;;;;565.53;153.13;;;6.50;99.90;;;;;;5073951;28;20227;-77
2021/04/04 02:13:44;;;;;;;572.88;157.93;;;6.50;99.90;;;;;;5070590;28;20933;-77
2021/04/04 02:16:11;;;;;;;545.97;161.45;;;6.60;99.90;;;;;;5066585;28;20205;-77
2021/04/04 02:18:39;;;;;;;524.67;158.60;;;6.70;99.90;;;;;;5077000;28;20201;-79
2021/04/04 02:21:06;;;;;;;520.85;157.98;;;6.70;99.90;;;;;;5069629;28;20209;-79
2021/04/04 02:23:34;;;;;;;527.65;143.88;;;6.80;99.90;;;;;;5070687;28;20205;-78
2021/04/04 02:26:01;;;;;;;502.80;145.93;;;6.80;99.90;;;;;;5068930;28;20221;-79
2021/04/04 02:28:29;;;;;;;523.92;170.38;;;6.90;99.90;;;;;;5073324;28;20235;-79
2021/04/04 02:30:56;;;;;;;515.58;151.90;;;7.00;99.90;;;;;;5069727;28;20231;-79
2021/04/04 02:33:26;;;;;;;525.55;164.57;;;7.00;99.90;;;;;;5081090;28;20208;-79
2021/04/04 02:35:59;;;;;;;525.88;179.88;;;7.00;99.90;;;;;;5080429;28;20231;-78
2021/04/04 02:38:29;;;;;;;534.08;176.98;;;7.00;99.90;;;;;;5069624;28;20205;-79
2021/04/04 02:40:58;;;;;;;510.23;165.68;;;7.00;99.90;;;;;;5069501;28;20209;-79
2021/04/04 02:43:29;;;;;;;520.75;173.25;;;7.10;99.90;;;;;;5067613;28;20201;-78
2021/04/04 02:45:57;;;;;;;553.60;185.20;;;7.10;99.90;;;;;;5070954;28;20233;-79
2021/04/04 02:48:29;;;;;;;511.50;159.68;;;7.10;99.90;;;;;;5072318;28;20209;-78
2021/04/04 02:51:00;;;;;;;525.30;162.15;;;7.20;99.90;;;;;;5071826;28;20212;-78
2021/04/04 02:53:28;;;;;;;536.22;180.00;;;7.20;99.90;;;;;;5077233;28;20198;-78
2021/04/04 02:55:56;;;;;;;514.22;154.73;;;7.30;99.90;;;;;;5071597;28;20288;-78
2021/04/04 02:58:26;;;;;;;526.33;153.07;;;7.20;99.90;;;;;;5070951;28;20232;-78
2021/04/04 03:00:57;;;;;;;531.45;179.90;;;7.20;99.90;;;;;;5071369;28;20601;-78
2021/04/04 03:03:28;;;;;;;516.40;157.02;;;7.30;99.90;;;;;;5071123;28;20250;-78
2021/04/04 03:05:58;;;;;;;527.88;185.02;;;7.40;99.90;;;;;;5076699;28;20709;-78
2021/04/04 03:08:26;;;;;;;538.58;172.88;;;7.40;99.90;;;;;;5078453;28;20198;-78
2021/04/04 03:10:53;;;;;;;517.10;182.07;;;7.40;99.90;;;;;;5070015;28;20863;-77
2021/04/04 03:13:22;;;;;;;518.08;189.20;;;7.40;99.90;;;;;;5070315;28;20554;-78
2021/04/04 03:15:50;;;;;;;520.70;159.85;;;7.50;99.90;;;;;;5072192;28;20262;-78
2021/04/04 03:18:19;;;;;;;541.90;184.25;;;7.50;99.90;;;;;;5070540;28;20197;-78
2021/04/04 03:20:46;;;;;;;559.72;182.68;;;7.50;99.90;;;;;;5071097;28;20213;-78
2021/04/04 03:23:16;;;;;;;558.90;177.50;;;7.50;99.90;;;;;;5071161;28;20197;-78
2021/04/04 03:25:45;;;;;;;541.10;192.68;;;7.50;99.90;;;;;;5070852;28;20236;-77
2021/04/04 03:28:12;;;;;;;506.88;163.93;;;7.50;99.90;;;;;;5071568;28;20211;-77
2021/04/04 03:30:45;;;;;;;500.88;161.93;;;7.60;99.90;;;;;;5084066;28;20899;-77
2021/04/04 03:33:15;;;;;;;520.28;174.15;;;7.60;99.90;;;;;;5088060;28;20202;-77
2021/04/04 03:35:44;;;;;;;524.83;186.07;;;7.60;99.90;;;;;;5076028;28;20198;-77
2021/04/04 03:38:11;;;;;;;503.52;161.10;;;7.60;99.90;;;;;;5079967;28;20201;-77
2021/04/04 03:40:39;;;;;;;513.10;161.75;;;7.60;99.90;;;;;;5085135;28;20219;-77
2021/04/04 03:43:11;;;;;;;515.22;178.45;;;7.60;99.90;;;;;;5081543;28;20208;-78
2021/04/04 03:45:38;;;;;;;531.72;180.50;;;7.60;99.90;;;;;;5069507;28;20217;-77
2021/04/04 03:48:06;;;;;;;535.85;196.20;;;7.60;99.90;;;;;;5069547;28;20229;-77
2021/04/04 03:50:35;;;;;;;555.50;186.35;;;7.60;99.90;;;;;;5072266;28;20202;-78
2021/04/04 03:53:03;;;;;;;551.63;184.48;;;7.60;99.90;;;;;;5071117;28;20212;-77
2021/04/04 03:55:31;;;;;;;532.40;186.57;;;7.70;99.90;;;;;;5069386;28;20224;-78
2021/04/04 03:57:59;;;;;;;565.58;157.13;;;7.60;99.90;;;;;;5069130;28;20201;-78
2021/04/04 04:00:29;;;;;;;575.70;186.63;;;7.70;99.90;;;;;;5075941;28;20230;-78
2021/04/04 04:02:56;;;;;;;580.03;183.50;;;7.70;99.90;;;;;;5076667;28;20236;-77
2021/04/04 04:05:24;;;;;;;579.28;186.85;;;7.70;99.90;;;;;;5084562;28;20228;-77
2021/04/04 04:07:54;;;;;;;579.92;182.60;;;7.70;99.90;;;;;;5079641;28;20192;-77
2021/04/04 04:10:21;;;;;;;581.85;171.93;;;7.70;99.90;;;;;;5088583;28;20902;-77
2021/04/04 04:12:49;;;;;;;529.20;172.52;;;7.80;99.90;;;;;;5071845;28;20272;-77
2021/04/04 04:15:18;;;;;;;494.17;162.57;;;7.70;99.90;;;;;;5078085;28;20209;-78
2021/04/04 04:17:47;;;;;;;485.98;166.88;;;7.70;99.90;;;;;;5070221;28;20208;-78
2021/04/04 04:20:14;;;;;;;518.42;197.48;;;7.70;99.90;;;;;;5076065;28;20208;-78
2021/04/04 04:22:41;;;;;;;578.35;178.02;;;7.60;99.90;;;;;;5069120;28;20220;-78
2021/04/04 04:25:10;;;;;;;573.53;168.05;;;7.60;99.90;;;;;;5072484;28;20224;-78
2021/04/04 04:27:37;;;;;;;562.25;156.00;;;7.60;99.90;;;;;;5076265;28;20209;-78
2021/04/04 04:30:06;;;;;;;561.17;154.95;;;7.60;99.90;;;;;;5076547;28;20197;-78
2021/04/04 04:32:37;;;;;;;574.20;173.70;;;7.60;99.90;;;;;;5078049;28;20226;-78
2021/04/04 04:35:05;;;;;;;576.00;168.77;;;7.60;99.90;;;;;;5073962;28;20198;-78
2021/04/04 04:37:34;;;;;;;579.63;185.63;;;7.60;99.90;;;;;;5071080;28;20219;-78
2021/04/04 04:40:04;;;;;;;570.63;171.43;;;7.50;99.90;;;;;;5070180;28;20227;-78
2021/04/04 04:42:32;;;;;;;575.50;177.00;;;7.50;99.90;;;;;;5072413;28;20261;-78
2021/04/04 04:45:00;;;;;;;561.85;157.20;;;7.50;99.90;;;;;;5072625;28;20297;-78
2021/04/04 04:47:27;;;;;;;575.10;173.30;;;7.50;99.90;;;;;;5077159;28;20189;-78
2021/04/04 04:49:56;;;;;;;561.67;160.00;;;7.50;99.90;;;;;;5078325;28;20208;-79
2021/04/04 04:52:24;;;;;;;579.88;186.60;;;7.50;99.90;;;;;;5068054;28;20204;-77
2021/04/04 04:54:50;;;;;;;572.70;177.05;;;7.50;99.90;;;;;;5072027;28;20201;-77
2021/04/04 04:57:18;;;;;;;575.70;174.65;;;7.50;99.90;;;;;;5074279;28;20207;-77
2021/04/04 04:59:47;;;;;;;572.45;160.52;;;7.50;99.90;;;;;;5067174;28;20212;-77
2021/04/04 05:02:16;;;;;;;566.53;152.32;;;7.50;99.90;;;;;;5067047;28;20197;-77
2021/04/04 05:04:46;;;;;;;562.13;158.73;;;7.50;99.90;;;;;;5066632;28;20261;-77
2021/04/04 05:07:17;;;;;;;572.08;159.02;;;7.50;99.90;;;;;;5073446;28;20237;-77
2021/04/04 05:09:46;;;;;;;619.83;323.80;;;7.50;99.90;;;;;;5074485;28;20478;-76
2021/04/04 05:12:18;;;;;;;582.70;194.65;;;7.50;99.90;;;;;;5067688;28;20459;-77
2021/04/04 05:14:44;;;;;;;579.67;183.20;;;7.50;99.90;;;;;;5066877;28;20239;-77
2021/04/04 05:17:11;;;;;;;563.47;154.00;;;7.40;99.90;;;;;;5067857;28;20197;-77
2021/04/04 05:19:39;;;;;;;516.80;165.10;;;7.40;99.90;;;;;;5070720;28;20196;-76
2021/04/04 05:22:05;;;;;;;483.98;163.77;;;7.50;99.90;;;;;;5070145;28;20200;-77
2021/04/04 05:24:33;;;;;;;577.03;171.18;;;7.50;99.90;;;;;;5071668;28;20229;-77
2021/04/04 05:26:59;;;;;;;565.60;157.45;;;7.50;99.90;;;;;;5070826;28;20216;-76
2021/04/04 05:29:26;;;;;;;535.80;163.95;;;7.50;99.90;;;;;;5068835;28;20224;-76
2021/04/04 05:31:53;;;;;;;498.83;175.07;;;7.50;99.90;;;;;;5066626;28;20197;-77
2021/04/04 05:34:22;;;;;;;531.00;194.50;;;7.50;99.90;;;;;;5067981;28;20208;-77
2021/04/04 05:36:53;;;;;;;522.53;205.80;;;7.50;99.90;;;;;;5071219;28;20205;-77
2021/04/04 05:39:22;;;;;;;506.58;184.20;;;7.60;99.90;;;;;;5075519;28;20209;-78
2021/04/04 05:41:53;;;;;;;505.77;165.23;;;7.60;99.90;;;;;;5069793;28;20205;-77
2021/04/04 05:44:26;;;;;;;483.08;178.90;;;7.60;99.90;;;;;;5065980;28;20205;-77
2021/04/04 05:47:00;;;;;;;493.10;201.23;;;7.60;99.90;;;;;;5067946;28;20243;-77
2021/04/04 05:49:39;;;;;;;526.75;187.43;;;7.60;99.90;;;;;;5071851;28;20242;-77
2021/04/04 05:52:12;;;;;;;568.10;155.18;;;7.70;99.90;;;;;;5066406;28;20224;-76
2021/04/04 05:54:53;;;;;;;576.65;186.30;;;7.80;99.90;;;;;;5073806;28;20204;-77
2021/04/04 05:57:25;;;;;;;562.25;153.65;;;7.80;99.90;;;;;;5066440;28;20201;-76
2021/04/04 05:59:57;;;;;;;573.78;177.52;;;7.80;99.90;;;;;;5077613;28;20219;-76
2021/04/04 06:02:56;;;;;;;507.02;191.55;;;7.80;99.90;;;;;;5070054;28;20608;-76
2021/04/04 06:06:04;;;;;;;505.83;168.35;;;7.80;99.90;;;;;;5071465;28;20319;-76
2021/04/04 06:08:48;;;;;;;497.25;159.85;;;7.90;99.90;;;;;;5066513;28;20236;-76
2021/04/04 06:11:22;;;;;;;516.03;195.15;;;7.90;99.90;;;;;;5066063;28;20204;-77
2021/04/04 06:13:57;;;;;;;521.85;190.85;;;7.90;99.90;;;;;;5076285;28;20211;-77
2021/04/04 06:16:35;;;;;;;509.15;169.23;;;7.90;99.90;;;;;;5065772;28;20229;-76
2021/04/04 06:19:14;;;;;;;523.25;214.35;;;7.90;99.90;;;;;;5071977;28;20239;-77
2021/04/04 06:21:49;;;;;;;520.90;193.45;;;7.90;99.90;;;;;;5071212;28;20204;-78
2021/04/04 06:24:40;;;;;;;514.80;187.48;;;8.00;99.90;;;;;;5074475;28;20199;-78
2021/04/04 06:27:16;;;;;;;521.50;197.35;;;8.00;99.90;;;;;;5070435;28;20246;-78
2021/04/04 06:30:20;;;;;;;499.45;190.38;;;8.00;99.90;;;;;;5072380;28;20200;-79
2021/04/04 06:32:59;;;;;;;573.75;189.02;;;8.10;99.90;;;;;;5072804;28;20218;-79
2021/04/04 06:35:39;;;;;;;528.47;206.27;;;8.10;99.90;;;;;;5083926;28;20204;-78
2021/04/04 06:38:25;;;;;;;515.95;173.27;;;8.20;99.90;;;;;;5077577;28;20215;-79
2021/04/04 06:41:00;;;;;;;527.08;195.32;;;8.30;99.90;;;;;;5073029;28;20284;-78
2021/04/04 06:43:36;;;;;;;536.30;202.98;;;8.30;99.90;;;;;;5072424;28;20204;-79
2021/04/04 06:46:13;;;;;;;529.28;160.75;;;8.30;99.90;;;;;;5072687;28;20230;-78
2021/04/04 06:48:58;;;;;;;491.98;190.20;;;8.30;99.90;;;;;;5071902;28;20201;-79
2021/04/04 06:51:35;;;;;;;502.05;210.57;;;8.30;99.90;;;;;;5078321;28;20204;-79
2021/04/04 06:54:11;;;;;;;499.05;203.13;;;8.30;99.90;;;;;;5072911;28;20287;-79
2021/04/04 06:56:54;;;;;;;470.58;175.00;;;8.30;99.90;;;;;;5074171;28;20568;-78
2021/04/04 06:59:29;;;;;;;516.75;209.55;;;8.40;99.90;;;;;;5072083;28;20295;-79
2021/04/04 07:02:02;;;;;;;479.50;176.10;;;8.30;99.90;;;;;;5072549;28;20201;-79
2021/04/04 07:04:37;;;;;;;526.38;178.27;;;8.20;99.90;;;;;;5074867;28;20241;-80
2021/04/04 07:07:24;;;;;;;568.67;163.95;;;8.20;99.90;;;;;;5072945;28;20265;-78
2021/04/04 07:10:25;;;;;;;577.10;183.80;;;8.20;99.90;;;;;;5080334;28;20204;-77
2021/04/04 07:13:28;;;;;;;577.97;184.90;;;8.30;99.90;;;;;;5075307;28;20218;-76
2021/04/04 07:19:28;;;;;;;573.80;170.70;;;8.20;99.90;;;;;;5081348;28;20223;-78
2021/04/04 07:22:57;;;;;;;563.70;160.52;;;8.30;99.90;;;;;;5075486;28;20201;-77
2021/04/04 07:25:40;;;;;;;568.15;167.52;;;8.30;99.90;;;;;;4965077;29;20236;-78
2021/04/04 07:28:28;;;;;;;576.72;191.35;;;8.20;99.90;;;;;;5019928;28;20208;-77
2021/04/04 07:30:59;;;;;;;572.78;183.23;;;8.20;99.90;;;;;;5018662;28;20248;-77
2021/04/04 07:33:41;;;;;;;565.33;175.88;;;8.20;99.90;;;;;;5023085;28;20209;-77
2021/04/04 07:36:17;;;;;;;579.55;188.50;;;8.30;99.90;;;;;;5016868;28;20690;-77
2021/04/04 07:38:53;;;;;;;565.80;164.55;;;8.30;99.90;;;;;;5025403;28;20631;-77
2021/04/04 07:41:30;;;;;;;579.20;189.00;;;8.40;99.90;;;;;;5015371;28;20239;-77
2021/04/04 07:44:02;;;;;;;547.90;221.40;;;8.40;99.90;;;;;;5019886;28;20199;-77
2021/04/04 07:46:37;;;;;;;513.25;204.98;;;8.40;99.90;;;;;;5021630;28;20230;-77
2021/04/04 07:49:15;;;;;;;517.22;185.73;;;8.50;99.90;;;;;;5014620;28;20217;-78
2021/04/04 07:51:49;;;;;;;529.88;206.70;;;8.60;99.90;;;;;;5026234;28;20640;-77
2021/04/04 07:54:23;;;;;;;533.10;205.20;;;8.60;99.90;;;;;;5021701;28;20203;-77
2021/04/04 07:56:56;;;;;;;513.80;190.00;;;8.60;99.90;;;;;;5060606;28;20235;-77
2021/04/04 07:59:27;;;;;;;506.15;223.15;;;8.50;99.90;;;;;;5072404;28;20203;-77
2021/04/04 08:02:11;;;;;;;514.13;215.48;;;8.40;99.90;;;;;;5074393;28;20250;-78
2021/04/04 08:04:43;;;;;;;528.65;201.68;;;8.40;99.90;;;;;;5067731;28;20241;-77
2021/04/04 08:07:16;;;;;;;575.38;178.15;;;8.40;99.90;;;;;;5068131;28;20201;-77
2021/04/04 08:09:49;;;;;;;575.97;175.70;;;8.50;99.90;;;;;;5072436;28;20223;-77
2021/04/04 08:12:24;;;;;;;577.47;175.57;;;8.50;99.90;;;;;;5075266;28;20197;-77
2021/04/04 08:14:57;;;;;;;574.50;177.18;;;8.50;99.90;;;;;;5067481;28;20263;-77
2021/04/04 08:17:23;;;;;;;578.20;196.82;;;8.60;99.90;;;;;;5080347;28;20201;-77
2021/04/04 08:19:59;;;;;;;579.10;198.30;;;8.60;99.90;;;;;;5068588;28;20615;-76
2021/04/04 08:22:30;;;;;;;567.25;167.98;;;8.60;99.90;;;;;;5072223;28;20341;-77
2021/04/04 08:25:02;;;;;;;577.72;198.85;;;8.60;99.90;;;;;;5071769;28;20221;-77
2021/04/04 08:27:34;;;;;;;583.60;201.45;;;8.60;99.90;;;;;;5068033;28;20284;-77
2021/04/04 08:30:08;;;;;;;567.53;165.80;;;8.60;99.90;;;;;;5067657;28;20205;-76
2021/04/04 08:32:43;;;;;;;583.75;199.57;;;8.60;99.90;;;;;;5068122;28;20196;-77
2021/04/04 08:35:12;;;;;;;575.10;177.65;;;8.40;99.90;;;;;;5068848;28;20207;-76
2021/04/04 08:37:46;;;;;;;573.72;178.10;;;8.40;99.90;;;;;;5075558;28;20230;-78
2021/04/04 08:40:14;;;;;;;572.40;173.35;;;8.30;99.90;;;;;;5067124;28;20198;-77
2021/04/04 08:42:49;;;;;;;571.22;172.80;;;8.30;99.90;;;;;;5077723;28;20208;-78
2021/04/04 08:45:29;;;;;;;575.30;184.18;;;8.20;99.90;;;;;;5067790;28;20209;-78
2021/04/04 08:47:57;;;;;;;585.65;192.82;;;8.20;99.90;;;;;;5070574;28;20205;-78
2021/04/04 08:50:28;;;;;;;582.67;181.70;;;8.10;99.90;;;;;;5070797;28;20201;-77
2021/04/04 08:53:02;;;;;;;498.05;170.85;;;7.90;99.90;;;;;;5077534;28;20205;-78
2021/04/04 08:55:30;;;;;;;534.15;205.95;;;8.00;99.90;;;;;;5069525;28;20760;-78
2021/04/04 08:58:02;;;;;;;507.88;191.07;;;8.10;99.90;;;;;;5078020;28;20202;-79
2021/04/04 09:00:30;;;;;;;524.33;210.38;;;8.20;99.90;;;;;;5075457;28;20201;-79
2021/04/04 09:03:04;;;;;;;505.77;193.07;;;8.30;99.90;;;;;;5070182;28;20297;-78
2021/04/04 09:05:33;;;;;;;572.25;173.70;;;8.40;99.90;;;;;;5072625;28;20231;-77
2021/04/04 09:08:03;;;;;;;579.00;182.95;;;8.50;99.90;;;;;;5077867;28;20205;-78
2021/04/04 09:10:38;;;;;;;576.88;174.68;;;8.60;99.90;;;;;;5072386;28;20268;-78
2021/04/04 09:13:10;;;;;;;582.95;206.00;;;8.50;99.90;;;;;;5076423;28;20227;-77
2021/04/04 09:15:45;;;;;;;579.88;198.45;;;8.40;99.90;;;;;;5070656;28;20197;-78
2021/04/04 09:18:12;;;;;;;577.00;180.98;;;8.50;99.90;;;;;;5074411;28;20283;-78
2021/04/04 09:20:44;;;;;;;579.65;184.57;;;8.50;99.90;;;;;;5075085;28;20660;-78
2021/04/04 09:23:12;;;;;;;581.97;196.52;;;8.50;99.90;;;;;;5072200;28;20206;-77
2021/04/04 09:25:48;;;;;;;573.45;179.43;;;8.70;99.90;;;;;;5069357;28;20225;-78
2021/04/04 09:28:16;;;;;;;580.15;195.73;;;8.80;99.90;;;;;;5069542;28;20205;-78
2021/04/04 09:30:48;;;;;;;579.85;196.35;;;8.80;99.90;;;;;;5072964;28;20212;-78
2021/04/04 09:33:18;;;;;;;588.40;221.65;;;8.90;99.90;;;;;;5073835;28;20208;-78
2021/04/04 09:35:53;;;;;;;572.70;187.98;;;9.00;99.90;;;;;;5075342;28;20228;-78
2021/04/04 09:38:27;;;;;;;573.83;184.48;;;8.90;99.90;;;;;;5070460;28;20212;-77
2021/04/04 09:40:56;;;;;;;586.75;221.82;;;8.90;99.90;;;;;;5068757;28;20213;-78
2021/04/04 09:43:24;;;;;;;573.20;188.50;;;9.00;99.90;;;;;;5069814;28;20200;-77
2021/04/04 09:45:57;;;;;;;574.88;186.55;;;9.00;99.90;;;;;;5070673;28;20259;-78
2021/04/04 09:48:33;;;;;;;583.20;204.23;;;9.00;99.90;;;;;;5075416;28;20686;-76
2021/04/04 09:51:08;;;;;;;590.22;220.88;;;9.10;99.90;;;;;;5067669;28;20224;-76
2021/04/04 09:53:37;;;;;;;590.15;218.52;;;9.20;99.90;;;;;;5078432;28;20282;-78
2021/04/04 09:56:08;;;;;;;584.45;222.00;;;9.30;99.90;;;;;;5082092;28;20204;-78
2021/04/04 09:58:38;;;;;;;589.85;225.68;;;9.30;99.90;;;;;;5071133;28;20239;-78
2021/04/04 10:08:25;;;;;;;583.10;224.23;;;9.40;99.90;;;;;;5104542;28;20200;-77
2021/04/04 10:10:55;;;;;;;588.30;235.05;;;9.50;99.90;;;;;;5104496;28;20573;-77
2021/04/04 10:16:18;;;;;;;572.45;209.95;;;9.60;99.90;;;;;;5103980;28;20591;-77
2021/04/04 10:18:59;;;;;;;581.47;224.65;;;9.50;99.90;;;;;;5113408;28;20215;-75
2021/04/04 10:21:26;;;;;;;585.38;232.23;;;9.50;99.90;;;;;;5102560;28;20196;-74
2021/04/04 10:23:53;;;;;;;583.78;224.93;;;9.50;99.90;;;;;;5107600;28;20572;-74
2021/04/04 10:26:21;;;;;;;590.58;248.55;;;9.50;99.90;;;;;;5114014;28;20204;-76
2021/04/04 10:28:51;;;;;;;588.58;239.95;;;9.50;99.90;;;;;;5107511;28;20209;-77
2021/04/04 10:31:22;;;;;;;589.90;242.73;;;9.50;99.90;;;;;;5106681;28;20214;-75
2021/04/04 10:33:57;;;;;;;595.85;252.15;;;9.60;99.90;;;;;;5109163;28;20313;-74
2021/04/04 10:36:24;;;;;;;588.50;231.00;;;9.50;99.90;;;;;;5108798;28;20207;-74
2021/04/04 10:38:55;;;;;;;598.47;256.67;;;9.50;99.90;;;;;;5112612;28;20196;-75
2021/04/04 10:41:26;;;;;;;589.47;240.43;;;9.60;99.90;;;;;;5102925;28;20686;-75
2021/04/04 10:43:54;;;;;;;588.22;233.70;;;9.60;99.90;;;;;;5102366;28;20224;-75
2021/04/04 10:46:25;;;;;;;587.28;217.80;;;9.60;99.90;;;;;;5107974;28;20200;-75
2021/04/04 10:48:52;;;;;;;580.90;220.18;;;9.50;99.90;;;;;;5108179;28;20226;-73
2021/04/04 10:51:20;;;;;;;586.35;225.20;;;9.50;99.90;;;;;;5110696;28;20211;-76
2021/04/04 10:53:47;;;;;;;586.42;233.57;;;9.50;99.90;;;;;;5103752;28;20207;-77
2021/04/04 10:56:16;;;;;;;588.97;243.07;;;9.60;99.90;;;;;;5106007;28;20203;-77
2021/04/04 10:58:43;;;;;;;583.58;218.80;;;9.70;99.90;;;;;;5107869;28;20648;-77
2021/04/04 11:01:12;;;;;;;583.03;230.15;;;9.90;99.90;;;;;;5107671;28;20207;-76
2021/04/04 11:03:40;;;;;;;583.95;232.38;;;10.10;99.90;;;;;;5109442;28;20238;-77
2021/04/04 11:06:07;;;;;;;585.00;223.93;;;10.10;99.90;;;;;;5105966;28;20192;-77
2021/04/04 11:11:32;;;;;;;597.47;261.05;;;10.10;99.90;;;;;;5105877;28;20200;-77
2021/04/04 11:14:00;;;;;;;601.67;270.05;;;10.00;99.90;;;;;;5101316;28;20212;-77
2021/04/04 11:16:36;;;;;;;596.03;259.55;;;10.00;99.90;;;;;;5094828;28;20196;-77
2021/04/04 11:21:49;;;;;;;596.88;260.15;;;10.10;99.90;;;;;;5096057;28;20215;-77
2021/04/04 11:24:19;;;;;;;595.53;265.05;;;10.10;99.90;;;;;;5089499;28;20678;-77
2021/04/04 11:26:50;;;;;;;527.80;252.38;;;9.90;99.90;;;;;;5091897;28;20201;-77
2021/04/04 11:29:23;;;;;;;500.52;226.65;;;9.90;99.90;;;;;;5088446;28;20192;-76
2021/04/04 11:31:53;;;;;;;572.90;233.43;;;9.90;99.90;;;;;;5092089;28;20219;-77
2021/04/04 11:34:26;;;;;;;486.77;225.73;;;9.90;99.90;;;;;;5093459;28;20305;-77
2021/04/04 11:36:53;;;;;;;503.23;263.38;;;9.90;99.90;;;;;;5090649;28;20204;-77
2021/04/04 11:39:20;;;;;;;484.70;262.80;;;10.00;99.90;;;;;;5088410;28;20205;-77
2021/04/04 11:41:50;;;;;;;474.13;306.83;;;10.20;99.90;;;;;;5088785;28;20200;-77
2021/04/04 11:44:29;;;;;;;594.90;255.80;;;10.30;99.90;;;;;;5095395;28;20224;-77
2021/04/04 11:46:57;;;;;;;588.80;241.20;;;10.40;99.90;;;;;;5087600;28;20620;-76
2021/04/04 11:52:46;;;;;;;607.17;290.95;;;10.80;99.90;;;;;;5090843;28;20284;-77
2021/04/04 11:55:12;;;;;;;597.47;256.33;;;10.90;99.90;;;;;;5099700;28;20209;-76
2021/04/04 11:57:44;;;;;;;572.22;308.65;;;10.90;99.90;;;;;;5089647;28;20209;-77
2021/04/04 12:00:20;;;;;;;497.60;269.45;;;10.90;99.90;;;;;;5087757;28;20268;-77
2021/04/04 12:02:59;;;;;;;525.60;298.52;;;10.90;99.90;;;;;;5089679;28;20236;-76
2021/04/04 12:05:28;;;;;;;493.15;269.45;;;10.80;99.90;;;;;;5095294;28;20268;-77
2021/04/04 12:07:55;;;;;;;511.20;306.88;;;10.70;99.90;;;;;;5091897;28;20287;-77
2021/04/04 12:10:27;;;;;;;507.50;321.30;;;10.80;99.90;;;;;;5093526;28;20200;-77
2021/04/04 12:23:53;;;;;;;608.67;306.77;;;11.20;99.90;;;;;;5086846;28;20220;-75
2021/04/04 12:26:19;;;;;;;593.25;263.25;;;11.30;99.90;;;;;;5086131;28;20205;-76
2021/04/04 12:28:47;;;;;;;598.55;280.80;;;11.30;99.90;;;;;;5086782;28;20205;-76
2021/04/04 12:31:14;;;;;;;604.83;300.73;;;11.50;99.90;;;;;;5095166;28;20206;-76
2021/04/04 12:33:41;;;;;;;612.97;337.98;;;11.70;99.90;;;;;;5087298;28;20216;-75
2021/04/04 12:36:07;;;;;;;615.58;353.33;;;11.80;99.90;;;;;;5086390;28;20219;-75
2021/04/04 12:38:37;;;;;;;610.25;327.08;;;11.70;99.90;;;;;;5092820;28;20209;-75
2021/04/04 12:41:03;;;;;;;616.92;344.35;;;11.80;99.90;;;;;;5087706;28;20256;-74
2021/04/04 12:43:30;;;;;;;619.15;332.48;;;11.80;99.90;;;;;;5091587;28;20227;-74
2021/04/04 12:45:57;;;;;;;615.85;331.55;;;11.90;99.90;;;;;;5097717;28;20204;-76
2021/04/04 12:48:25;;;;;;;601.47;300.67;;;12.00;99.90;;;;;;5096115;28;20200;-76
2021/04/04 12:50:55;;;;;;;612.60;330.65;;;12.10;99.90;;;;;;5086240;28;20531;-75
2021/04/04 12:53:23;;;;;;;610.38;318.45;;;12.20;99.90;;;;;;5086160;28;20208;-74
2021/04/04 12:55:50;;;;;;;616.80;326.65;;;12.20;99.90;;;;;;5086135;28;20837;-75
2021/04/04 12:58:17;;;;;;;602.13;283.52;;;12.10;99.90;;;;;;5096355;28;20200;-74
2021/04/04 13:00:45;;;;;;;619.15;354.58;;;12.00;99.90;;;;;;5091312;28;20205;-75
2021/04/04 13:03:15;;;;;;;603.55;295.70;;;11.90;99.90;;;;;;5085683;28;20232;-75
2021/04/04 13:05:42;;;;;;;616.70;351.63;;;12.00;99.90;;;;;;5093005;28;20205;-75
2021/04/04 13:08:17;;;;;;;611.28;325.50;;;11.90;99.90;;;;;;5090719;28;20214;-75
2021/04/04 13:10:46;;;;;;;616.30;341.10;;;11.80;99.90;;;;;;5088139;28;20228;-74